sensor_id;sensor_type;location;lat;lon;timestamp;temperature;humidity
42019;DHT22;27703;51.980;5.848;2022-12-29T00:02:00;11.00;99.90
42019;DHT22;27703;51.980;5.848;2022-12-29T00:04:26;11.00;99.90
42019;DHT22;27703;51.980;5.848;2022-12-29T00:06:52;11.00;99.90
42019;DHT22;27703;51.980;5.848;2022-12-29T00:09:18;11.00;99.90
42019;DHT22;27703;51.980;5.848;2022-12-29T00:11:43;11.00;99.90
42019;DHT22;27703;51.980;5.848;2022-12-29T00:14:10;11.00;99.90
42019;DHT22;27703;51.980;5.848;2022-12-29T00:16:54;11.00;99.90
42019;DHT22;27703;51.980;5.848;2022-12-29T00:19:20;11.00;99.90
42019;DHT22;27703;51.980;5.848;2022-12-29T00:22:05;11.00;99.90
42019;DHT22;27703;51.980;5.848;2022-12-29T00:24:49;11.00;99.90
42019;DHT22;27703;51.980;5.848;2022-12-29T00:27:27;11.00;99.90
42019;DHT22;27703;51.980;5.848;2022-12-29T00:30:17;11.00;99.90
42019;DHT22;27703;51.980;5.848;2022-12-29T00:33:15;11.00;99.90
42019;DHT22;27703;51.980;5.848;2022-12-29T00:36:06;11.00;99.90
42019;DHT22;27703;51.980;5.848;2022-12-29T00:38:37;11.00;99.90
42019;DHT22;27703;51.980;5.848;2022-12-29T00:41:21;11.00;99.90
42019;DHT22;27703;51.980;5.848;2022-12-29T00:44:07;11.00;99.90
42019;DHT22;27703;51.980;5.848;2022-12-29T00:46:37;11.00;99.90
42019;DHT22;27703;51.980;5.848;2022-12-29T00:49:03;11.00;99.90
42019;DHT22;27703;51.980;5.848;2022-12-29T00:51:48;11.00;99.90
42019;DHT22;27703;51.980;5.848;2022-12-29T00:54:14;11.00;99.90
42019;DHT22;27703;51.980;5.848;2022-12-29T00:56:40;11.00;99.90
42019;DHT22;27703;51.980;5.848;2022-12-29T00:59:08;11.10;99.90
42019;DHT22;27703;51.980;5.848;2022-12-29T01:01:34;11.10;99.90
42019;DHT22;27703;51.980;5.848;2022-12-29T01:04:00;11.00;99.90
42019;DHT22;27703;51.980;5.848;2022-12-29T01:06:26;11.00;99.90
42019;DHT22;27703;51.980;5.848;2022-12-29T01:08:52;11.00;99.90
42019;DHT22;27703;51.980;5.848;2022-12-29T01:11:37;11.00;99.90
42019;DHT22;27703;51.980;5.848;2022-12-29T01:14:03;11.00;99.90
42019;DHT22;27703;51.980;5.848;2022-12-29T01:16:29;11.00;99.90
42019;DHT22;27703;51.980;5.848;2022-12-29T01:18:54;11.00;99.90
42019;DHT22;27703;51.980;5.848;2022-12-29T01:21:20;11.00;99.90
42019;DHT22;27703;51.980;5.848;2022-12-29T01:23:46;11.00;99.90
42019;DHT22;27703;51.980;5.848;2022-12-29T01:26:13;11.10;99.90
42019;DHT22;27703;51.980;5.848;2022-12-29T01:28:39;11.10;99.90
42019;DHT22;27703;51.980;5.848;2022-12-29T01:31:06;11.00;99.90
42019;DHT22;27703;51.980;5.848;2022-12-29T01:33:32;11.00;99.90
42019;DHT22;27703;51.980;5.848;2022-12-29T01:36:01;11.00;99.90
42019;DHT22;27703;51.980;5.848;2022-12-29T01:38:27;11.00;99.90
42019;DHT22;27703;51.980;5.848;2022-12-29T01:40:52;11.00;99.90
42019;DHT22;27703;51.980;5.848;2022-12-29T01:43:18;11.00;99.90
42019;DHT22;27703;51.980;5.848;2022-12-29T01:45:47;10.90;99.90
42019;DHT22;27703;51.980;5.848;2022-12-29T01:48:13;10.90;99.90
42019;DHT22;27703;51.980;5.848;2022-12-29T01:50:45;10.90;99.90
42019;DHT22;27703;51.980;5.848;2022-12-29T01:53:33;10.90;99.90
42019;DHT22;27703;51.980;5.848;2022-12-29T01:56:04;10.90;99.90
42019;DHT22;27703;51.980;5.848;2022-12-29T01:58:35;10.90;99.90
42019;DHT22;27703;51.980;5.848;2022-12-29T02:01:02;10.90;99.90
42019;DHT22;27703;51.980;5.848;2022-12-29T02:03:28;10.80;99.90
42019;DHT22;27703;51.980;5.848;2022-12-29T02:06:14;10.90;99.90
42019;DHT22;27703;51.980;5.848;2022-12-29T02:08:42;10.90;99.90
42019;DHT22;27703;51.980;5.848;2022-12-29T02:11:08;10.90;99.90
42019;DHT22;27703;51.980;5.848;2022-12-29T02:13:34;10.90;99.90
42019;DHT22;27703;51.980;5.848;2022-12-29T02:30:03;10.90;99.90
42019;DHT22;27703;51.980;5.848;2022-12-29T02:32:53;10.90;99.90
42019;DHT22;27703;51.980;5.848;2022-12-29T02:35:41;10.90;99.90
42019;DHT22;27703;51.980;5.848;2022-12-29T02:46:21;10.70;99.90
42019;DHT22;27703;51.980;5.848;2022-12-29T02:51:56;10.70;99.90
42019;DHT22;27703;51.980;5.848;2022-12-29T02:54:23;10.70;99.90
42019;DHT22;27703;51.980;5.848;2022-12-29T02:59:51;10.60;99.90
42019;DHT22;27703;51.980;5.848;2022-12-29T03:05:20;10.80;99.90
42019;DHT22;27703;51.980;5.848;2022-12-29T03:08:13;10.80;99.90
42019;DHT22;27703;51.980;5.848;2022-12-29T03:11:04;10.90;99.90
42019;DHT22;27703;51.980;5.848;2022-12-29T03:13:47;11.10;99.90
42019;DHT22;27703;51.980;5.848;2022-12-29T03:19:20;11.10;99.90
42019;DHT22;27703;51.980;5.848;2022-12-29T03:21:57;11.00;99.90
42019;DHT22;27703;51.980;5.848;2022-12-29T03:24:46;10.80;99.90
42019;DHT22;27703;51.980;5.848;2022-12-29T03:27:15;10.70;99.90
42019;DHT22;27703;51.980;5.848;2022-12-29T03:29:47;10.60;99.90
42019;DHT22;27703;51.980;5.848;2022-12-29T03:32:20;10.60;99.90
42019;DHT22;27703;51.980;5.848;2022-12-29T03:34:48;10.70;99.90
42019;DHT22;27703;51.980;5.848;2022-12-29T03:37:18;10.70;99.90
42019;DHT22;27703;51.980;5.848;2022-12-29T03:39:45;10.80;99.90
42019;DHT22;27703;51.980;5.848;2022-12-29T03:42:17;10.90;99.90
42019;DHT22;27703;51.980;5.848;2022-12-29T03:44:44;11.00;99.90
42019;DHT22;27703;51.980;5.848;2022-12-29T03:47:11;11.00;99.90
42019;DHT22;27703;51.980;5.848;2022-12-29T03:49:37;10.90;99.90
42019;DHT22;27703;51.980;5.848;2022-12-29T03:52:04;11.00;99.90
42019;DHT22;27703;51.980;5.848;2022-12-29T03:54:30;11.00;99.90
42019;DHT22;27703;51.980;5.848;2022-12-29T03:56:56;11.00;99.90
42019;DHT22;27703;51.980;5.848;2022-12-29T03:59:21;11.00;99.90
42019;DHT22;27703;51.980;5.848;2022-12-29T04:01:47;11.00;99.90
42019;DHT22;27703;51.980;5.848;2022-12-29T04:04:13;11.00;99.90
42019;DHT22;27703;51.980;5.848;2022-12-29T04:06:38;11.00;99.90
42019;DHT22;27703;51.980;5.848;2022-12-29T04:09:04;11.00;99.90
42019;DHT22;27703;51.980;5.848;2022-12-29T04:11:30;11.00;99.90
42019;DHT22;27703;51.980;5.848;2022-12-29T04:13:55;11.00;99.90
42019;DHT22;27703;51.980;5.848;2022-12-29T04:16:21;11.00;99.90
42019;DHT22;27703;51.980;5.848;2022-12-29T04:18:46;11.00;99.90
42019;DHT22;27703;51.980;5.848;2022-12-29T04:21:12;11.00;99.90
42019;DHT22;27703;51.980;5.848;2022-12-29T04:23:38;11.00;99.90
42019;DHT22;27703;51.980;5.848;2022-12-29T04:26:05;11.00;99.90
42019;DHT22;27703;51.980;5.848;2022-12-29T04:28:32;11.00;99.90
42019;DHT22;27703;51.980;5.848;2022-12-29T04:30:58;11.00;99.90
42019;DHT22;27703;51.980;5.848;2022-12-29T04:33:24;11.00;99.90
42019;DHT22;27703;51.980;5.848;2022-12-29T04:35:49;11.00;99.90
42019;DHT22;27703;51.980;5.848;2022-12-29T04:38:16;11.10;99.90
42019;DHT22;27703;51.980;5.848;2022-12-29T04:40:42;11.10;99.90
42019;DHT22;27703;51.980;5.848;2022-12-29T04:43:08;11.00;99.90
42019;DHT22;27703;51.980;5.848;2022-12-29T04:45:34;11.00;99.90
42019;DHT22;27703;51.980;5.848;2022-12-29T04:47:59;11.00;99.90
42019;DHT22;27703;51.980;5.848;2022-12-29T04:50:26;11.00;99.90
42019;DHT22;27703;51.980;5.848;2022-12-29T04:52:51;10.90;99.90
42019;DHT22;27703;51.980;5.848;2022-12-29T04:55:17;10.90;99.90
42019;DHT22;27703;51.980;5.848;2022-12-29T04:57:42;10.80;99.90
42019;DHT22;27703;51.980;5.848;2022-12-29T05:00:08;10.80;99.90
42019;DHT22;27703;51.980;5.848;2022-12-29T05:02:35;10.80;99.90
42019;DHT22;27703;51.980;5.848;2022-12-29T05:05:01;10.70;99.90
42019;DHT22;27703;51.980;5.848;2022-12-29T05:07:27;10.70;99.90
42019;DHT22;27703;51.980;5.848;2022-12-29T05:09:52;10.70;99.90
42019;DHT22;27703;51.980;5.848;2022-12-29T05:12:18;10.70;99.90
42019;DHT22;27703;51.980;5.848;2022-12-29T05:14:43;10.70;99.90
42019;DHT22;27703;51.980;5.848;2022-12-29T05:17:09;10.70;99.90
42019;DHT22;27703;51.980;5.848;2022-12-29T05:19:34;10.70;99.90
42019;DHT22;27703;51.980;5.848;2022-12-29T05:22:00;10.70;99.90
42019;DHT22;27703;51.980;5.848;2022-12-29T05:24:25;10.70;99.90
42019;DHT22;27703;51.980;5.848;2022-12-29T05:26:51;10.70;99.90
42019;DHT22;27703;51.980;5.848;2022-12-29T05:29:17;10.70;99.90
42019;DHT22;27703;51.980;5.848;2022-12-29T05:31:42;10.60;99.90
42019;DHT22;27703;51.980;5.848;2022-12-29T05:34:12;10.50;99.90
42019;DHT22;27703;51.980;5.848;2022-12-29T05:36:38;10.50;99.90
42019;DHT22;27703;51.980;5.848;2022-12-29T05:39:04;10.50;99.90
42019;DHT22;27703;51.980;5.848;2022-12-29T05:41:29;10.50;99.90
42019;DHT22;27703;51.980;5.848;2022-12-29T05:43:55;10.40;99.90
42019;DHT22;27703;51.980;5.848;2022-12-29T05:46:21;10.40;99.90
42019;DHT22;27703;51.980;5.848;2022-12-29T05:48:46;10.30;99.90
42019;DHT22;27703;51.980;5.848;2022-12-29T05:51:12;10.20;99.90
42019;DHT22;27703;51.980;5.848;2022-12-29T05:53:37;10.30;99.90
42019;DHT22;27703;51.980;5.848;2022-12-29T05:56:03;10.20;99.90
42019;DHT22;27703;51.980;5.848;2022-12-29T05:58:28;10.20;99.90
42019;DHT22;27703;51.980;5.848;2022-12-29T06:00:54;10.10;99.90
42019;DHT22;27703;51.980;5.848;2022-12-29T06:03:19;10.10;99.90
42019;DHT22;27703;51.980;5.848;2022-12-29T06:05:45;10.10;99.90
42019;DHT22;27703;51.980;5.848;2022-12-29T06:08:11;10.10;99.90
42019;DHT22;27703;51.980;5.848;2022-12-29T06:10:37;10.00;99.90
42019;DHT22;27703;51.980;5.848;2022-12-29T06:13:03;10.10;99.90
42019;DHT22;27703;51.980;5.848;2022-12-29T06:15:31;10.10;99.90
42019;DHT22;27703;51.980;5.848;2022-12-29T06:17:56;10.10;99.90
42019;DHT22;27703;51.980;5.848;2022-12-29T06:20:22;10.10;99.90
42019;DHT22;27703;51.980;5.848;2022-12-29T06:22:48;10.10;99.90
42019;DHT22;27703;51.980;5.848;2022-12-29T06:25:14;10.10;99.90
42019;DHT22;27703;51.980;5.848;2022-12-29T06:27:40;10.10;99.90
42019;DHT22;27703;51.980;5.848;2022-12-29T06:30:06;10.10;99.90
42019;DHT22;27703;51.980;5.848;2022-12-29T06:32:32;10.10;99.90
42019;DHT22;27703;51.980;5.848;2022-12-29T06:34:57;10.10;99.90
42019;DHT22;27703;51.980;5.848;2022-12-29T06:37:23;10.10;99.90
42019;DHT22;27703;51.980;5.848;2022-12-29T06:39:48;10.10;99.90
42019;DHT22;27703;51.980;5.848;2022-12-29T06:42:14;10.10;99.90
42019;DHT22;27703;51.980;5.848;2022-12-29T06:44:39;10.10;99.90
42019;DHT22;27703;51.980;5.848;2022-12-29T06:47:05;10.10;99.90
42019;DHT22;27703;51.980;5.848;2022-12-29T06:49:30;10.10;99.90
42019;DHT22;27703;51.980;5.848;2022-12-29T06:51:56;10.10;99.90
42019;DHT22;27703;51.980;5.848;2022-12-29T06:54:23;10.20;99.90
42019;DHT22;27703;51.980;5.848;2022-12-29T06:56:49;10.20;99.90
42019;DHT22;27703;51.980;5.848;2022-12-29T06:59:14;10.20;99.90
42019;DHT22;27703;51.980;5.848;2022-12-29T07:01:40;10.30;99.90
42019;DHT22;27703;51.980;5.848;2022-12-29T07:04:05;10.30;99.90
42019;DHT22;27703;51.980;5.848;2022-12-29T07:06:31;10.30;99.90
42019;DHT22;27703;51.980;5.848;2022-12-29T07:08:56;10.30;99.90
42019;DHT22;27703;51.980;5.848;2022-12-29T07:11:23;10.30;99.90
42019;DHT22;27703;51.980;5.848;2022-12-29T07:13:49;10.30;99.90
42019;DHT22;27703;51.980;5.848;2022-12-29T07:16:14;10.30;99.90
42019;DHT22;27703;51.980;5.848;2022-12-29T07:18:40;10.30;99.90
42019;DHT22;27703;51.980;5.848;2022-12-29T07:21:05;10.40;99.90
42019;DHT22;27703;51.980;5.848;2022-12-29T07:23:31;10.40;99.90
42019;DHT22;27703;51.980;5.848;2022-12-29T07:26:07;10.40;99.90
42019;DHT22;27703;51.980;5.848;2022-12-29T07:28:34;10.40;99.90
42019;DHT22;27703;51.980;5.848;2022-12-29T07:31:00;10.40;99.90
42019;DHT22;27703;51.980;5.848;2022-12-29T07:33:28;10.40;99.90
42019;DHT22;27703;51.980;5.848;2022-12-29T07:35:54;10.40;99.90
42019;DHT22;27703;51.980;5.848;2022-12-29T07:38:20;10.40;99.90
42019;DHT22;27703;51.980;5.848;2022-12-29T07:40:45;10.40;99.90
42019;DHT22;27703;51.980;5.848;2022-12-29T07:43:11;10.40;99.90
42019;DHT22;27703;51.980;5.848;2022-12-29T07:45:37;10.40;99.90
42019;DHT22;27703;51.980;5.848;2022-12-29T07:48:04;10.40;99.90
42019;DHT22;27703;51.980;5.848;2022-12-29T07:50:31;10.40;99.90
42019;DHT22;27703;51.980;5.848;2022-12-29T07:52:56;10.50;99.90
42019;DHT22;27703;51.980;5.848;2022-12-29T07:55:22;10.50;99.90
42019;DHT22;27703;51.980;5.848;2022-12-29T07:57:47;10.50;99.90
42019;DHT22;27703;51.980;5.848;2022-12-29T08:00:13;10.50;99.90
42019;DHT22;27703;51.980;5.848;2022-12-29T08:02:39;10.50;99.90
42019;DHT22;27703;51.980;5.848;2022-12-29T08:05:05;10.50;99.90
42019;DHT22;27703;51.980;5.848;2022-12-29T08:07:31;10.50;99.90
42019;DHT22;27703;51.980;5.848;2022-12-29T08:09:56;10.50;99.90
42019;DHT22;27703;51.980;5.848;2022-12-29T08:12:22;10.50;99.90
42019;DHT22;27703;51.980;5.848;2022-12-29T08:14:48;10.50;99.90
42019;DHT22;27703;51.980;5.848;2022-12-29T08:17:13;10.40;99.90
42019;DHT22;27703;51.980;5.848;2022-12-29T08:19:39;10.40;99.90
42019;DHT22;27703;51.980;5.848;2022-12-29T08:22:05;10.40;99.90
42019;DHT22;27703;51.980;5.848;2022-12-29T08:24:30;10.40;99.90
42019;DHT22;27703;51.980;5.848;2022-12-29T08:26:56;10.40;99.90
42019;DHT22;27703;51.980;5.848;2022-12-29T08:29:22;10.40;99.90
42019;DHT22;27703;51.980;5.848;2022-12-29T08:31:47;10.50;99.90
42019;DHT22;27703;51.980;5.848;2022-12-29T08:34:13;10.40;99.90
42019;DHT22;27703;51.980;5.848;2022-12-29T08:36:39;10.40;99.90
42019;DHT22;27703;51.980;5.848;2022-12-29T08:39:05;10.50;99.90
42019;DHT22;27703;51.980;5.848;2022-12-29T08:41:30;10.40;99.90
42019;DHT22;27703;51.980;5.848;2022-12-29T08:43:56;10.50;99.90
42019;DHT22;27703;51.980;5.848;2022-12-29T08:46:21;10.50;99.90
42019;DHT22;27703;51.980;5.848;2022-12-29T08:48:47;10.50;99.90
42019;DHT22;27703;51.980;5.848;2022-12-29T08:51:13;10.50;99.90
42019;DHT22;27703;51.980;5.848;2022-12-29T08:53:39;10.60;99.90
42019;DHT22;27703;51.980;5.848;2022-12-29T08:56:05;10.60;99.90
42019;DHT22;27703;51.980;5.848;2022-12-29T08:58:31;10.60;99.90
42019;DHT22;27703;51.980;5.848;2022-12-29T09:00:58;10.60;99.90
42019;DHT22;27703;51.980;5.848;2022-12-29T09:03:24;10.50;99.90
42019;DHT22;27703;51.980;5.848;2022-12-29T09:05:54;10.60;99.90
42019;DHT22;27703;51.980;5.848;2022-12-29T09:08:20;10.60;99.90
42019;DHT22;27703;51.980;5.848;2022-12-29T09:10:46;10.60;99.90
42019;DHT22;27703;51.980;5.848;2022-12-29T09:13:12;10.60;99.90
42019;DHT22;27703;51.980;5.848;2022-12-29T09:15:38;10.60;99.90
42019;DHT22;27703;51.980;5.848;2022-12-29T09:18:05;10.50;99.90
42019;DHT22;27703;51.980;5.848;2022-12-29T09:20:31;10.50;99.90
42019;DHT22;27703;51.980;5.848;2022-12-29T09:22:56;10.40;99.90
42019;DHT22;27703;51.980;5.848;2022-12-29T09:25:22;10.40;99.90
42019;DHT22;27703;51.980;5.848;2022-12-29T09:27:50;10.40;99.90
42019;DHT22;27703;51.980;5.848;2022-12-29T09:30:17;10.40;99.90
42019;DHT22;27703;51.980;5.848;2022-12-29T09:32:43;10.30;99.90
42019;DHT22;27703;51.980;5.848;2022-12-29T09:35:09;10.30;99.90
42019;DHT22;27703;51.980;5.848;2022-12-29T09:37:34;10.30;99.90
42019;DHT22;27703;51.980;5.848;2022-12-29T09:40:00;10.40;99.90
42019;DHT22;27703;51.980;5.848;2022-12-29T09:42:40;10.40;99.90
42019;DHT22;27703;51.980;5.848;2022-12-29T09:45:32;10.40;99.90
42019;DHT22;27703;51.980;5.848;2022-12-29T09:47:59;10.40;99.90
42019;DHT22;27703;51.980;5.848;2022-12-29T09:50:29;10.30;99.90
42019;DHT22;27703;51.980;5.848;2022-12-29T09:55:36;10.30;99.90
42019;DHT22;27703;51.980;5.848;2022-12-29T09:58:06;10.20;99.90
42019;DHT22;27703;51.980;5.848;2022-12-29T10:00:39;10.20;99.90
42019;DHT22;27703;51.980;5.848;2022-12-29T10:03:17;10.20;99.90
42019;DHT22;27703;51.980;5.848;2022-12-29T10:05:46;10.10;99.90
42019;DHT22;27703;51.980;5.848;2022-12-29T10:08:36;10.00;99.90
42019;DHT22;27703;51.980;5.848;2022-12-29T10:11:16;10.00;99.90
42019;DHT22;27703;51.980;5.848;2022-12-29T10:19:33;9.80;99.90
42019;DHT22;27703;51.980;5.848;2022-12-29T10:24:56;9.70;99.90
42019;DHT22;27703;51.980;5.848;2022-12-29T10:27:30;9.70;99.90
42019;DHT22;27703;51.980;5.848;2022-12-29T10:29:56;9.60;99.90
42019;DHT22;27703;51.980;5.848;2022-12-29T10:32:40;9.60;99.90
42019;DHT22;27703;51.980;5.848;2022-12-29T10:35:26;9.60;99.90
42019;DHT22;27703;51.980;5.848;2022-12-29T10:40:53;9.60;99.90
42019;DHT22;27703;51.980;5.848;2022-12-29T10:44:02;9.60;99.90
42019;DHT22;27703;51.980;5.848;2022-12-29T10:46:27;9.60;99.90
42019;DHT22;27703;51.980;5.848;2022-12-29T10:48:53;9.60;99.90
42019;DHT22;27703;51.980;5.848;2022-12-29T10:51:32;9.50;99.90
42019;DHT22;27703;51.980;5.848;2022-12-29T10:56:42;9.60;99.90
42019;DHT22;27703;51.980;5.848;2022-12-29T10:59:20;9.50;99.90
42019;DHT22;27703;51.980;5.848;2022-12-29T11:04:54;9.50;99.90
42019;DHT22;27703;51.980;5.848;2022-12-29T11:07:21;9.60;99.90
42019;DHT22;27703;51.980;5.848;2022-12-29T11:09:47;9.60;99.90
42019;DHT22;27703;51.980;5.848;2022-12-29T11:12:28;9.60;99.90
42019;DHT22;27703;51.980;5.848;2022-12-29T11:17:52;9.60;99.90
42019;DHT22;27703;51.980;5.848;2022-12-29T11:20:36;9.70;99.90
42019;DHT22;27703;51.980;5.848;2022-12-29T11:23:03;9.80;99.90
42019;DHT22;27703;51.980;5.848;2022-12-29T11:25:29;9.80;99.90
42019;DHT22;27703;51.980;5.848;2022-12-29T11:28:15;9.90;99.90
42019;DHT22;27703;51.980;5.848;2022-12-29T11:30:41;9.90;99.90
42019;DHT22;27703;51.980;5.848;2022-12-29T11:33:08;9.90;99.90
42019;DHT22;27703;51.980;5.848;2022-12-29T11:35:42;9.90;99.90
42019;DHT22;27703;51.980;5.848;2022-12-29T11:38:20;9.90;99.90
42019;DHT22;27703;51.980;5.848;2022-12-29T11:40:47;9.90;99.90
42019;DHT22;27703;51.980;5.848;2022-12-29T11:43:34;10.00;99.90
42019;DHT22;27703;51.980;5.848;2022-12-29T11:46:02;10.10;99.90
42019;DHT22;27703;51.980;5.848;2022-12-29T11:48:40;10.10;99.90
42019;DHT22;27703;51.980;5.848;2022-12-29T11:51:06;10.10;99.90
42019;DHT22;27703;51.980;5.848;2022-12-29T11:53:48;10.10;99.90
42019;DHT22;27703;51.980;5.848;2022-12-29T11:56:17;10.10;99.90
42019;DHT22;27703;51.980;5.848;2022-12-29T11:58:43;10.10;99.90
42019;DHT22;27703;51.980;5.848;2022-12-29T12:01:27;10.20;99.90
42019;DHT22;27703;51.980;5.848;2022-12-29T12:04:11;10.20;99.90
42019;DHT22;27703;51.980;5.848;2022-12-29T12:09:35;10.10;99.90
42019;DHT22;27703;51.980;5.848;2022-12-29T12:12:03;10.10;99.90
42019;DHT22;27703;51.980;5.848;2022-12-29T12:14:35;10.10;99.90
42019;DHT22;27703;51.980;5.848;2022-12-29T12:17:05;10.10;99.90
42019;DHT22;27703;51.980;5.848;2022-12-29T12:38:25;10.40;99.90
42019;DHT22;27703;51.980;5.848;2022-12-29T12:43:55;10.50;99.90
42019;DHT22;27703;51.980;5.848;2022-12-29T12:52:26;10.90;99.90
42019;DHT22;27703;51.980;5.848;2022-12-29T12:55:37;10.90;99.90
42019;DHT22;27703;51.980;5.848;2022-12-29T12:58:26;10.80;99.90
42019;DHT22;27703;51.980;5.848;2022-12-29T13:09:18;10.60;99.90
42019;DHT22;27703;51.980;5.848;2022-12-29T13:28:19;10.40;99.90
42019;DHT22;27703;51.980;5.848;2022-12-29T13:31:13;10.30;99.90
42019;DHT22;27703;51.980;5.848;2022-12-29T13:36:37;10.30;99.90
42019;DHT22;27703;51.980;5.848;2022-12-29T13:39:21;10.20;99.90
42019;DHT22;27703;51.980;5.848;2022-12-29T13:41:52;10.20;99.90
42019;DHT22;27703;51.980;5.848;2022-12-29T13:44:30;10.20;99.90
42019;DHT22;27703;51.980;5.848;2022-12-29T13:47:00;10.20;99.90
42019;DHT22;27703;51.980;5.848;2022-12-29T13:49:27;10.20;99.90
42019;DHT22;27703;51.980;5.848;2022-12-29T13:51:59;10.20;99.90
42019;DHT22;27703;51.980;5.848;2022-12-29T13:57:39;10.30;99.90
42019;DHT22;27703;51.980;5.848;2022-12-29T14:00:19;10.30;99.90
42019;DHT22;27703;51.980;5.848;2022-12-29T14:07:46;10.30;99.90
42019;DHT22;27703;51.980;5.848;2022-12-29T14:13:02;10.30;99.90
42019;DHT22;27703;51.980;5.848;2022-12-29T14:15:28;10.30;99.90
42019;DHT22;27703;51.980;5.848;2022-12-29T14:18:23;10.20;99.90
42019;DHT22;27703;51.980;5.848;2022-12-29T14:20:53;10.20;99.90
42019;DHT22;27703;51.980;5.848;2022-12-29T14:28:42;10.00;99.90
42019;DHT22;27703;51.980;5.848;2022-12-29T14:33:41;9.80;99.90
42019;DHT22;27703;51.980;5.848;2022-12-29T14:36:33;9.80;99.90
42019;DHT22;27703;51.980;5.848;2022-12-29T14:38:59;9.70;99.90
42019;DHT22;27703;51.980;5.848;2022-12-29T14:41:40;9.60;99.90
42019;DHT22;27703;51.980;5.848;2022-12-29T14:49:21;9.40;99.90
42019;DHT22;27703;51.980;5.848;2022-12-29T14:51:51;9.30;99.90
42019;DHT22;27703;51.980;5.848;2022-12-29T14:54:42;9.30;99.90
42019;DHT22;27703;51.980;5.848;2022-12-29T14:57:15;9.30;99.90
42019;DHT22;27703;51.980;5.848;2022-12-29T14:59:45;9.20;99.90
42019;DHT22;27703;51.980;5.848;2022-12-29T15:02:17;9.20;99.90
42019;DHT22;27703;51.980;5.848;2022-12-29T15:04:44;9.20;99.90
42019;DHT22;27703;51.980;5.848;2022-12-29T15:07:12;9.20;99.90
42019;DHT22;27703;51.980;5.848;2022-12-29T15:09:47;9.20;99.90
42019;DHT22;27703;51.980;5.848;2022-12-29T15:12:23;9.20;99.90
42019;DHT22;27703;51.980;5.848;2022-12-29T15:14:57;9.20;99.90
42019;DHT22;27703;51.980;5.848;2022-12-29T15:17:31;9.20;99.90
42019;DHT22;27703;51.980;5.848;2022-12-29T15:20:00;9.20;99.90
42019;DHT22;27703;51.980;5.848;2022-12-29T15:22:27;9.20;99.90
42019;DHT22;27703;51.980;5.848;2022-12-29T15:24:54;9.20;99.90
42019;DHT22;27703;51.980;5.848;2022-12-29T15:27:23;9.20;99.90
42019;DHT22;27703;51.980;5.848;2022-12-29T15:30:00;9.20;99.90
42019;DHT22;27703;51.980;5.848;2022-12-29T15:32:28;9.20;99.90
42019;DHT22;27703;51.980;5.848;2022-12-29T15:34:57;9.20;99.90
42019;DHT22;27703;51.980;5.848;2022-12-29T15:37:27;9.20;99.90
42019;DHT22;27703;51.980;5.848;2022-12-29T15:39:55;9.20;99.90
42019;DHT22;27703;51.980;5.848;2022-12-29T15:45:08;9.20;99.90
42019;DHT22;27703;51.980;5.848;2022-12-29T15:47:35;9.20;99.90
42019;DHT22;27703;51.980;5.848;2022-12-29T15:50:34;9.20;99.90
42019;DHT22;27703;51.980;5.848;2022-12-29T15:53:01;9.30;99.90
42019;DHT22;27703;51.980;5.848;2022-12-29T15:55:38;9.30;99.90
42019;DHT22;27703;51.980;5.848;2022-12-29T15:58:06;9.30;99.90
42019;DHT22;27703;51.980;5.848;2022-12-29T16:00:47;9.30;99.90
42019;DHT22;27703;51.980;5.848;2022-12-29T16:03:14;9.30;99.90
42019;DHT22;27703;51.980;5.848;2022-12-29T16:05:40;9.20;99.90
42019;DHT22;27703;51.980;5.848;2022-12-29T16:10:49;9.20;99.90
42019;DHT22;27703;51.980;5.848;2022-12-29T16:15:41;9.20;99.90
42019;DHT22;27703;51.980;5.848;2022-12-29T16:18:24;9.20;99.90
42019;DHT22;27703;51.980;5.848;2022-12-29T16:20:51;9.30;99.90
42019;DHT22;27703;51.980;5.848;2022-12-29T16:23:23;9.30;99.90
42019;DHT22;27703;51.980;5.848;2022-12-29T16:25:49;9.30;99.90
42019;DHT22;27703;51.980;5.848;2022-12-29T16:28:19;9.30;99.90
42019;DHT22;27703;51.980;5.848;2022-12-29T16:30:45;9.30;99.90
42019;DHT22;27703;51.980;5.848;2022-12-29T16:33:39;9.30;99.90
42019;DHT22;27703;51.980;5.848;2022-12-29T16:41:49;9.20;99.90
42019;DHT22;27703;51.980;5.848;2022-12-29T16:44:29;9.10;99.90
42019;DHT22;27703;51.980;5.848;2022-12-29T16:47:16;9.10;99.90
42019;DHT22;27703;51.980;5.848;2022-12-29T16:49:46;9.00;99.90
42019;DHT22;27703;51.980;5.848;2022-12-29T16:52:17;9.00;99.90
42019;DHT22;27703;51.980;5.848;2022-12-29T16:54:50;9.00;99.90
42019;DHT22;27703;51.980;5.848;2022-12-29T16:57:29;9.00;99.90
42019;DHT22;27703;51.980;5.848;2022-12-29T16:59:59;9.00;99.90
42019;DHT22;27703;51.980;5.848;2022-12-29T17:02:27;9.00;99.90
42019;DHT22;27703;51.980;5.848;2022-12-29T17:04:54;9.00;99.90
42019;DHT22;27703;51.980;5.848;2022-12-29T17:07:25;9.00;99.90
42019;DHT22;27703;51.980;5.848;2022-12-29T17:09:51;8.90;99.90
42019;DHT22;27703;51.980;5.848;2022-12-29T17:12:23;9.00;99.90
42019;DHT22;27703;51.980;5.848;2022-12-29T17:14:53;8.90;99.90
42019;DHT22;27703;51.980;5.848;2022-12-29T17:20:05;8.90;99.90
42019;DHT22;27703;51.980;5.848;2022-12-29T17:22:31;8.90;99.90
42019;DHT22;27703;51.980;5.848;2022-12-29T17:24:59;8.90;99.90
42019;DHT22;27703;51.980;5.848;2022-12-29T17:27:41;8.90;99.90
42019;DHT22;27703;51.980;5.848;2022-12-29T17:30:20;8.90;99.90
42019;DHT22;27703;51.980;5.848;2022-12-29T17:32:57;8.80;99.90
42019;DHT22;27703;51.980;5.848;2022-12-29T17:35:24;8.80;99.90
42019;DHT22;27703;51.980;5.848;2022-12-29T17:37:50;8.70;99.90
42019;DHT22;27703;51.980;5.848;2022-12-29T17:40:18;8.70;99.90
42019;DHT22;27703;51.980;5.848;2022-12-29T17:42:46;8.70;99.90
42019;DHT22;27703;51.980;5.848;2022-12-29T17:45:14;8.70;99.90
42019;DHT22;27703;51.980;5.848;2022-12-29T17:47:41;8.70;99.90
42019;DHT22;27703;51.980;5.848;2022-12-29T17:50:11;8.70;99.90
42019;DHT22;27703;51.980;5.848;2022-12-29T17:52:38;8.70;99.90
42019;DHT22;27703;51.980;5.848;2022-12-29T17:55:04;8.70;99.90
42019;DHT22;27703;51.980;5.848;2022-12-29T17:57:30;8.70;99.90
42019;DHT22;27703;51.980;5.848;2022-12-29T17:59:55;8.70;99.90
42019;DHT22;27703;51.980;5.848;2022-12-29T18:02:29;8.60;99.90
42019;DHT22;27703;51.980;5.848;2022-12-29T18:04:57;8.60;99.90
42019;DHT22;27703;51.980;5.848;2022-12-29T18:07:26;8.60;99.90
42019;DHT22;27703;51.980;5.848;2022-12-29T18:09:52;8.50;99.90
42019;DHT22;27703;51.980;5.848;2022-12-29T18:14:52;8.40;99.90
42019;DHT22;27703;51.980;5.848;2022-12-29T18:17:18;8.40;99.90
42019;DHT22;27703;51.980;5.848;2022-12-29T18:19:43;8.40;99.90
42019;DHT22;27703;51.980;5.848;2022-12-29T18:22:09;8.30;99.90
42019;DHT22;27703;51.980;5.848;2022-12-29T18:24:35;8.40;99.90
42019;DHT22;27703;51.980;5.848;2022-12-29T18:27:04;8.30;99.90
42019;DHT22;27703;51.980;5.848;2022-12-29T18:29:34;8.40;99.90
42019;DHT22;27703;51.980;5.848;2022-12-29T18:32:00;8.40;99.90